createdAt,value
2023-04-06T03:59:03.560Z,19.87
2023-04-06T04:00:03.442Z,19.93
2023-04-06T04:01:03.433Z,19.92
2023-04-06T04:02:03.486Z,19.87
2023-04-06T04:03:03.523Z,19.87
2023-04-06T04:04:03.517Z,19.97
2023-04-06T04:05:03.414Z,19.86
2023-04-06T04:06:03.378Z,19.85
2023-04-06T04:07:03.363Z,19.97
2023-04-06T04:08:03.506Z,19.89
2023-04-06T04:09:03.394Z,19.93
2023-04-06T04:10:03.374Z,19.92
2023-04-06T04:11:03.374Z,19.93
2023-04-06T04:12:03.348Z,19.95
2023-04-06T04:13:03.341Z,20.00
2023-04-06T04:14:03.339Z,19.93
2023-04-06T04:15:03.357Z,19.97
2023-04-06T04:16:03.369Z,20.05
2023-04-06T04:17:03.322Z,20.07
2023-04-06T04:18:03.492Z,20.00
2023-04-06T04:19:03.317Z,20.04
2023-04-06T04:20:03.301Z,20.07
2023-04-06T04:21:03.311Z,20.04
2023-04-06T04:22:03.301Z,20.08
2023-04-06T04:23:03.294Z,20.15
2023-04-06T04:24:03.291Z,20.15
2023-04-06T04:25:03.275Z,20.16
2023-04-06T04:26:03.283Z,20.20
2023-04-06T04:27:03.309Z,20.11
2023-04-06T04:28:03.274Z,20.15
2023-04-06T04:29:03.269Z,20.12
2023-04-06T04:30:03.279Z,20.20
2023-04-06T04:31:03.279Z,20.18
2023-04-06T04:32:03.333Z,20.20
2023-04-06T04:33:03.354Z,20.15
2023-04-06T04:34:03.274Z,20.16
2023-04-06T04:35:03.244Z,20.20
2023-04-06T04:36:03.285Z,20.26
2023-04-06T04:37:03.258Z,20.25
2023-04-06T04:38:03.255Z,20.20
2023-04-06T04:39:03.235Z,20.29
2023-04-06T04:40:03.236Z,20.27
2023-04-06T04:41:03.232Z,20.32
2023-04-06T04:42:03.212Z,20.26
2023-04-06T04:43:03.221Z,20.25
2023-04-06T04:44:03.226Z,20.27
2023-04-06T04:45:03.218Z,20.26
2023-04-06T04:46:03.296Z,20.34
2023-04-06T04:47:03.230Z,20.38
2023-04-06T04:48:03.286Z,20.42
2023-04-06T04:49:03.186Z,20.37
2023-04-06T04:50:03.192Z,20.37
2023-04-06T04:51:03.186Z,20.38
2023-04-06T04:52:03.178Z,20.35
2023-04-06T04:53:03.188Z,20.35
2023-04-06T04:54:03.170Z,20.37
2023-04-06T04:55:03.164Z,20.41
2023-04-06T04:56:03.164Z,20.35
2023-04-06T04:57:03.185Z,20.40
2023-04-06T04:58:03.147Z,20.41
2023-04-06T04:59:03.211Z,20.49
2023-04-06T05:00:03.140Z,20.42
2023-04-06T05:01:03.185Z,20.48
2023-04-06T05:02:03.237Z,20.51
2023-04-06T05:03:03.223Z,20.51
2023-04-06T05:04:03.123Z,20.58
2023-04-06T05:05:03.153Z,20.49
2023-04-06T05:06:03.133Z,20.51
2023-04-06T05:07:03.115Z,20.54
2023-04-06T05:08:03.123Z,20.57
2023-04-06T05:09:03.114Z,20.61
2023-04-06T05:10:03.119Z,20.61
2023-04-06T05:11:03.122Z,20.56
2023-04-06T05:12:03.109Z,20.57
2023-04-06T05:13:03.093Z,20.54
2023-04-06T05:14:03.087Z,20.58
2023-04-06T05:15:03.094Z,20.57
2023-04-06T05:16:03.136Z,20.57
2023-04-06T05:17:03.070Z,20.60
2023-04-06T05:18:03.095Z,20.57
2023-04-06T05:19:03.075Z,20.64
2023-04-06T05:20:03.065Z,20.67
2023-04-06T05:21:03.070Z,20.67
2023-04-06T05:22:03.067Z,20.61
2023-04-06T05:23:03.070Z,20.61
2023-04-06T05:24:03.058Z,20.63
2023-04-06T05:25:03.061Z,20.66
2023-04-06T05:26:03.045Z,20.64
2023-04-06T05:27:03.027Z,20.72
2023-04-06T05:28:03.035Z,20.61
2023-04-06T05:29:03.021Z,20.75
2023-04-06T05:30:03.030Z,20.67
2023-04-06T05:31:03.023Z,20.72
2023-04-06T05:32:03.018Z,20.74
2023-04-06T05:33:03.036Z,20.66
2023-04-06T05:34:03.015Z,20.68
2023-04-06T05:35:03.045Z,20.71
2023-04-06T05:36:03.048Z,20.67
2023-04-06T05:37:02.992Z,20.72
2023-04-06T05:38:02.996Z,20.74
2023-04-06T05:39:02.984Z,20.76
2023-04-06T05:40:02.976Z,20.78
2023-04-06T05:41:02.976Z,20.79
2023-04-06T05:42:02.970Z,20.79
2023-04-06T05:43:02.958Z,20.81
2023-04-06T05:44:02.964Z,20.76
2023-04-06T05:45:02.977Z,20.88
2023-04-06T05:46:03.025Z,20.85
2023-04-06T05:47:02.978Z,20.86
2023-04-06T05:48:02.965Z,20.79
2023-04-06T05:49:04.204Z,20.81
2023-04-06T05:50:02.932Z,20.85
2023-04-06T05:51:02.945Z,20.90
2023-04-06T05:52:02.922Z,20.91
2023-04-06T05:53:02.938Z,20.88
2023-04-06T05:54:02.953Z,20.96
2023-04-06T05:55:02.958Z,20.98
2023-04-06T05:56:02.901Z,20.91
2023-04-06T05:57:02.899Z,20.96
2023-04-06T05:58:02.908Z,21.00
2023-04-06T05:59:02.903Z,21.04
2023-04-06T06:00:02.910Z,20.97
2023-04-06T06:01:02.917Z,21.04
2023-04-06T06:02:02.892Z,21.06
2023-04-06T06:03:02.907Z,21.06
2023-04-06T06:04:02.870Z,21.09
2023-04-06T06:05:02.909Z,21.12
2023-04-06T06:06:03.641Z,21.12
2023-04-06T06:07:02.877Z,21.13
2023-04-06T06:08:02.880Z,21.23
2023-04-06T06:09:02.873Z,21.22
2023-04-06T06:10:02.907Z,21.19
2023-04-06T06:11:02.841Z,21.31
2023-04-06T06:12:02.872Z,21.28
2023-04-06T06:13:02.844Z,21.27
2023-04-06T06:14:02.833Z,21.31
2023-04-06T06:15:02.842Z,21.33
2023-04-06T06:16:03.060Z,21.31
2023-04-06T06:17:02.827Z,21.34
2023-04-06T06:18:02.852Z,21.36
2023-04-06T06:19:02.807Z,21.38
2023-04-06T06:20:02.812Z,21.38
2023-04-06T06:21:02.816Z,21.48
2023-04-06T06:22:02.836Z,21.51
2023-04-06T06:23:02.827Z,21.48
2023-04-06T06:24:02.823Z,21.59
2023-04-06T06:25:02.791Z,21.56
2023-04-06T06:26:02.823Z,21.61
2023-04-06T06:27:02.824Z,21.68
2023-04-06T06:28:02.799Z,21.62
2023-04-06T06:29:02.800Z,21.61
2023-04-06T06:30:02.774Z,21.74
2023-04-06T06:31:02.821Z,21.70
2023-04-06T06:32:02.818Z,21.70
2023-04-06T06:33:02.837Z,21.77
2023-04-06T06:34:02.786Z,21.76
2023-04-06T06:35:02.761Z,21.82
2023-04-06T06:36:02.820Z,21.82
2023-04-06T06:37:02.769Z,21.85
2023-04-06T06:38:02.763Z,21.83
2023-04-06T06:39:02.767Z,21.93
2023-04-06T06:40:02.747Z,21.97
2023-04-06T06:41:02.763Z,21.99
2023-04-06T06:42:02.750Z,22.02
2023-04-06T06:43:02.773Z,22.07
2023-04-06T06:44:02.754Z,22.09
2023-04-06T06:45:02.756Z,22.09
2023-04-06T06:46:02.867Z,22.07
2023-04-06T06:47:02.738Z,22.12
2023-04-06T06:51:00.122Z,22.29
2023-04-06T06:52:00.151Z,22.18
2023-04-06T06:53:00.160Z,22.24
2023-04-06T06:54:00.114Z,22.31
2023-04-06T06:55:00.145Z,22.27
2023-04-06T06:56:00.141Z,22.34
2023-04-06T06:57:00.120Z,22.38
2023-04-06T06:58:00.102Z,22.36
2023-04-06T06:59:00.122Z,22.49
2023-04-06T07:00:00.104Z,22.45
2023-04-06T07:01:00.203Z,22.44
2023-04-06T07:02:00.087Z,22.45
2023-04-06T07:03:00.157Z,22.51
2023-04-06T07:04:00.123Z,22.44
2023-04-06T07:05:00.117Z,22.59
2023-04-06T07:06:00.093Z,22.59
2023-04-06T07:07:00.104Z,22.59
2023-04-06T07:08:00.092Z,22.63
2023-04-06T07:09:00.076Z,22.59
2023-04-06T07:10:00.129Z,22.66
2023-04-06T07:11:00.125Z,22.71
2023-04-06T07:12:00.082Z,22.70
2023-04-06T07:13:00.087Z,22.78
2023-04-06T07:14:00.057Z,22.84
2023-04-06T07:15:00.050Z,22.84
2023-04-06T07:16:00.048Z,22.84
2023-04-06T07:17:00.073Z,22.79
2023-04-06T07:18:00.155Z,22.89
2023-04-06T07:19:00.029Z,22.85
2023-04-06T07:20:00.076Z,22.89
2023-04-06T07:21:00.048Z,22.97
2023-04-06T07:22:00.160Z,23.00
2023-04-06T07:23:00.024Z,22.97
2023-04-06T07:24:00.043Z,23.04
2023-04-06T07:25:00.328Z,22.94
2023-04-06T07:26:00.029Z,22.99
2023-04-06T07:27:00.083Z,23.14
2023-04-06T07:28:00.038Z,23.04
2023-04-06T07:29:00.046Z,23.10
2023-04-06T07:30:00.009Z,23.10
2023-04-06T07:31:00.004Z,23.15
2023-04-06T07:32:00.075Z,23.16
2023-04-06T07:33:00.081Z,23.29
2023-04-06T07:34:00.005Z,23.24
2023-04-06T07:35:00.001Z,23.28
2023-04-06T07:36:00.133Z,23.26
2023-04-06T07:37:01.154Z,23.28
2023-04-06T07:37:59.995Z,23.40
2023-04-06T07:38:59.993Z,23.41
2023-04-06T07:39:59.991Z,23.38
2023-04-06T07:41:00.000Z,23.40
2023-04-06T07:41:59.992Z,23.41
2023-04-06T07:43:00.020Z,23.45
2023-04-06T07:43:59.977Z,23.47
2023-04-06T07:45:00.005Z,23.42
2023-04-06T07:45:59.990Z,23.47
2023-04-06T07:46:59.997Z,23.48
2023-04-06T07:47:59.996Z,23.55
2023-04-06T07:48:59.997Z,23.60
2023-04-06T07:50:00.007Z,23.59
2023-04-06T07:50:59.966Z,23.63
2023-04-06T07:51:59.975Z,23.62
2023-04-06T07:52:59.969Z,23.63
2023-04-06T07:53:59.968Z,23.70
2023-04-06T07:54:59.966Z,23.66
2023-04-06T07:55:59.965Z,23.70
2023-04-06T07:56:59.981Z,23.75
2023-04-06T07:57:59.964Z,23.75
2023-04-06T07:58:59.993Z,23.77
2023-04-06T07:59:59.979Z,23.77
2023-04-06T08:00:59.981Z,23.85
2023-04-06T08:02:00.054Z,23.87
2023-04-06T08:03:00.082Z,23.90
2023-04-06T08:04:00.011Z,23.90
2023-04-06T08:05:00.062Z,23.94
2023-04-06T08:05:59.954Z,23.94
2023-04-06T08:06:59.960Z,24.00
2023-04-06T08:07:59.957Z,23.94
2023-04-06T08:08:59.942Z,23.97
2023-04-06T08:09:59.946Z,24.03
2023-04-06T08:11:02.024Z,24.00
2023-04-06T08:11:59.962Z,24.04
2023-04-06T08:12:59.941Z,24.02
2023-04-06T08:13:59.940Z,24.02
2023-04-06T08:14:59.960Z,24.04
2023-04-06T08:15:59.965Z,24.09
2023-04-06T08:16:59.950Z,24.17
2023-04-06T08:17:59.996Z,24.14
2023-04-06T08:18:59.935Z,24.21
2023-04-06T08:19:59.927Z,24.22
2023-04-06T08:20:59.929Z,24.19
2023-04-06T08:21:59.951Z,24.18
2023-04-06T08:22:59.948Z,24.21
2023-04-06T08:23:59.925Z,24.27
2023-04-06T08:24:59.922Z,24.22
2023-04-06T08:25:59.931Z,24.21
2023-04-06T08:26:59.941Z,24.26
2023-04-06T08:27:59.942Z,24.29
2023-04-06T08:28:59.924Z,24.29
2023-04-06T08:29:59.918Z,24.24
2023-04-06T08:30:59.988Z,24.29
2023-04-06T08:31:59.924Z,24.34
2023-04-06T08:32:59.969Z,24.37
2023-04-06T08:33:59.912Z,24.37
2023-04-06T08:34:59.913Z,24.33
2023-04-06T08:35:59.949Z,24.33
2023-04-06T08:36:59.925Z,24.44
2023-04-06T08:37:59.913Z,24.40
2023-04-06T08:38:59.908Z,24.48
2023-04-06T08:39:59.916Z,24.48
2023-04-06T08:40:59.924Z,24.54
2023-04-06T08:41:59.925Z,24.51
2023-04-06T08:42:59.935Z,24.56
2023-04-06T08:43:59.898Z,24.63
2023-04-06T08:44:59.901Z,24.45
2023-04-06T08:45:59.923Z,24.58
2023-04-06T08:46:59.933Z,24.55
2023-04-06T08:47:59.967Z,24.58
2023-04-06T08:48:59.915Z,24.59
2023-04-06T08:49:59.899Z,24.59
2023-04-06T08:50:59.963Z,24.64
2023-04-06T08:51:59.919Z,24.63
2023-04-06T08:52:59.891Z,24.66
2023-04-06T08:53:59.916Z,24.75
2023-04-06T08:54:59.892Z,24.74
2023-04-06T08:55:59.917Z,24.71
2023-04-06T08:56:59.910Z,24.74
2023-04-06T08:57:59.883Z,24.70
2023-04-06T08:58:59.943Z,24.71
2023-04-06T08:59:59.893Z,24.77
2023-04-06T09:00:59.899Z,24.82
2023-04-06T09:01:59.958Z,24.82
2023-04-06T09:03:00.145Z,24.80
2023-04-06T09:04:00.071Z,24.87
2023-04-06T09:04:59.940Z,24.86
2023-04-06T09:05:59.883Z,24.83
2023-04-06T09:06:59.899Z,24.85
2023-04-06T09:07:59.897Z,24.93
2023-04-06T09:08:59.909Z,24.92
2023-04-06T09:09:59.880Z,24.97
2023-04-06T09:10:59.880Z,24.96
2023-04-06T09:11:59.884Z,24.97
2023-04-06T09:12:59.879Z,24.96
2023-04-06T09:13:59.896Z,25.02
2023-04-06T09:14:59.889Z,25.01
2023-04-06T09:15:59.915Z,25.02
2023-04-06T09:16:59.886Z,25.04
2023-04-06T09:17:59.949Z,25.00
2023-04-06T09:18:59.893Z,25.05
2023-04-06T09:19:59.906Z,25.05
2023-04-06T09:20:59.875Z,25.11
2023-04-06T09:21:59.881Z,25.09
2023-04-06T09:22:59.881Z,25.08
2023-04-06T09:23:59.927Z,25.14
2023-04-06T09:24:59.881Z,25.08
2023-04-06T09:25:59.891Z,25.20
2023-04-06T09:26:59.872Z,25.17
2023-04-06T09:27:59.881Z,25.15
2023-04-06T09:28:59.878Z,25.23
2023-04-06T09:29:59.890Z,25.20
2023-04-06T09:30:59.887Z,25.24
2023-04-06T09:31:59.917Z,25.29
2023-04-06T09:32:59.980Z,25.33
2023-04-06T09:33:59.877Z,25.29
2023-04-06T09:34:59.897Z,25.30
2023-04-06T09:35:59.931Z,25.26
2023-04-06T09:36:59.893Z,25.32
2023-04-06T09:37:59.888Z,25.33
2023-04-06T09:38:59.878Z,25.34
2023-04-06T09:39:59.879Z,25.33
2023-04-06T09:41:01.622Z,25.33
2023-04-06T09:41:59.937Z,25.44
2023-04-06T09:42:59.875Z,25.39
2023-04-06T09:43:59.882Z,25.42
2023-04-06T09:44:59.899Z,25.45
2023-04-06T09:45:59.893Z,25.47
2023-04-06T09:47:01.193Z,25.39
2023-04-06T09:48:00.133Z,25.56
2023-04-06T09:48:59.880Z,25.52
2023-04-06T09:49:59.919Z,25.59
2023-04-06T09:50:59.894Z,25.62
2023-04-06T09:51:59.896Z,25.62
2023-04-06T09:52:59.898Z,25.56
2023-04-06T09:53:59.905Z,25.59
2023-04-06T09:54:59.881Z,25.66
2023-04-06T09:55:59.889Z,25.67
2023-04-06T09:56:59.955Z,25.71
2023-04-06T09:57:59.894Z,25.71
2023-04-06T09:58:59.980Z,25.74
2023-04-06T09:59:59.880Z,25.69
2023-04-06T10:00:59.950Z,25.75
2023-04-06T10:01:59.868Z,25.76
2023-04-06T10:13:23.056Z,25.97
2023-04-06T10:14:23.005Z,25.96
2023-04-06T10:15:23.248Z,26.00
2023-04-06T10:16:23.083Z,25.96
2023-04-06T10:17:23.057Z,26.00
2023-04-06T10:18:23.012Z,25.97
2023-04-06T10:19:23.008Z,26.09
2023-04-06T10:20:23.006Z,26.11
2023-04-06T10:21:23.006Z,26.11
2023-04-06T10:22:23.010Z,26.12
2023-04-06T10:23:23.033Z,26.11
2023-04-06T10:24:23.022Z,26.16
2023-04-06T10:25:23.020Z,26.24
2023-04-06T10:26:22.993Z,26.19
2023-04-06T10:27:23.943Z,26.32
2023-04-06T10:28:23.026Z,26.22
2023-04-06T10:29:23.028Z,26.32
2023-04-06T10:30:23.006Z,26.35
2023-04-06T10:31:23.041Z,26.41
2023-04-06T10:32:23.078Z,26.38
2023-04-06T10:33:23.017Z,26.45
2023-04-06T10:34:23.005Z,26.44
2023-04-06T10:35:23.019Z,26.53
2023-04-06T10:36:23.081Z,26.53
2023-04-06T10:37:23.015Z,26.56
2023-04-06T10:38:23.102Z,26.60
2023-04-06T10:39:23.018Z,26.64
2023-04-06T10:40:23.046Z,26.63
2023-04-06T10:41:23.042Z,26.67
2023-04-06T10:42:23.041Z,26.75
2023-04-06T10:43:23.126Z,26.82
2023-04-06T10:44:23.041Z,26.82
2023-04-06T10:45:23.054Z,26.89
2023-04-06T10:46:23.126Z,26.84
2023-04-06T10:47:23.064Z,26.91
2023-04-06T10:48:23.126Z,26.96
2023-04-06T10:49:25.228Z,27.04
2023-04-06T10:50:23.055Z,27.06
2023-04-06T10:51:23.040Z,27.13
2023-04-06T10:52:23.038Z,27.15
2023-04-06T10:53:23.107Z,27.26
2023-04-06T10:54:23.039Z,27.18
2023-04-06T10:55:23.047Z,27.26
2023-04-06T10:56:23.051Z,27.30
2023-04-06T10:57:23.057Z,27.33
2023-04-06T10:58:23.061Z,27.42
2023-04-06T10:59:23.336Z,27.48
2023-04-06T11:00:23.058Z,27.53
2023-04-06T11:01:23.155Z,27.51
2023-04-06T11:02:23.071Z,27.53
2023-04-06T11:04:23.140Z,27.68
2023-04-06T11:05:23.063Z,27.68
2023-04-06T11:06:23.054Z,27.71
2023-04-06T11:07:23.059Z,27.72
2023-04-06T11:08:23.068Z,27.81
2023-04-06T11:09:23.065Z,27.81
2023-04-06T11:10:23.065Z,27.91
2023-04-06T11:11:23.084Z,27.94
2023-04-06T11:12:23.080Z,27.99
2023-04-06T11:13:23.089Z,28.01
2023-04-06T11:14:23.076Z,28.08
2023-04-06T11:15:23.077Z,28.08
2023-04-06T11:16:23.117Z,28.17
2023-04-06T11:17:23.112Z,28.23
2023-04-06T11:18:23.095Z,28.35
2023-04-06T11:19:23.103Z,28.35
2023-04-06T11:20:23.167Z,28.26
2023-04-06T11:21:23.118Z,28.33
2023-04-06T11:22:23.094Z,28.41
2023-04-06T11:23:23.111Z,28.51
2023-04-06T11:24:23.108Z,28.48
2023-04-06T11:25:23.143Z,28.55
2023-04-06T11:26:23.109Z,28.57
2023-04-06T11:27:23.116Z,28.68
2023-04-06T11:28:23.117Z,28.72
2023-04-06T11:29:23.115Z,28.83
2023-04-06T11:30:23.119Z,28.78
2023-04-06T11:31:23.175Z,28.92
2023-04-06T11:32:23.155Z,28.94
2023-04-06T11:33:23.156Z,29.03
2023-04-06T11:34:23.126Z,29.06
2023-04-06T11:35:23.162Z,29.08
2023-04-06T11:36:23.156Z,29.14
2023-04-06T11:37:23.152Z,29.23
2023-04-06T11:38:23.146Z,29.15
2023-04-06T11:39:23.156Z,29.23
2023-04-06T11:40:23.166Z,29.35
2023-04-06T11:41:23.161Z,29.42
2023-04-06T11:42:23.166Z,29.48
2023-04-06T11:43:23.218Z,29.58
2023-04-06T11:44:23.159Z,29.60
2023-04-06T11:45:23.174Z,29.69
2023-04-06T11:46:23.219Z,29.70
2023-04-06T11:47:23.206Z,29.81
2023-04-06T11:48:23.808Z,29.79
2023-04-06T11:49:23.265Z,29.88
2023-04-06T11:50:23.193Z,29.95
2023-04-06T11:51:23.190Z,30.02
2023-04-06T11:52:23.238Z,30.04
2023-04-06T11:53:23.232Z,30.09
2023-04-06T11:54:23.203Z,30.14
2023-04-06T11:55:23.218Z,30.21
2023-04-06T11:56:23.216Z,30.28
2023-04-06T11:57:23.227Z,30.40
2023-04-06T11:58:23.291Z,30.56
2023-04-06T11:59:23.286Z,30.57
2023-04-06T12:00:23.236Z,30.62
2023-04-06T12:01:23.239Z,30.64
2023-04-06T12:02:23.415Z,30.73
2023-04-06T12:03:23.447Z,30.78
2023-04-06T12:04:23.318Z,30.93
2023-04-06T12:05:23.296Z,30.84
2023-04-06T12:06:23.268Z,30.93
2023-04-06T12:07:23.259Z,31.04
2023-04-06T12:08:23.264Z,31.12
2023-04-06T12:09:23.268Z,31.13
2023-04-06T12:10:23.329Z,31.23
2023-04-06T12:11:23.290Z,31.30
2023-04-06T12:12:23.271Z,31.36
2023-04-06T12:13:23.285Z,31.52
2023-04-06T12:14:23.289Z,31.49
2023-04-06T12:15:23.312Z,31.55
2023-04-06T12:16:23.380Z,31.65
2023-04-06T12:17:23.320Z,31.74
2023-04-06T12:18:23.307Z,31.81
2023-04-06T12:19:23.317Z,31.86
2023-04-06T12:20:27.076Z,32.03
2023-04-06T12:21:23.359Z,32.12
2023-04-06T12:22:23.328Z,32.23
2023-04-06T12:23:23.338Z,32.16
2023-04-06T12:24:23.340Z,32.30
2023-04-06T12:25:23.367Z,32.31
2023-04-06T12:26:23.355Z,32.43
2023-04-06T12:27:23.366Z,32.54
2023-04-06T12:28:23.365Z,32.68
2023-04-06T12:29:23.366Z,32.67
2023-04-06T12:30:23.384Z,32.72
2023-04-06T12:31:23.424Z,32.84
2023-04-06T12:32:23.447Z,32.89
2023-04-06T12:33:23.425Z,33.09
2023-04-06T12:34:23.413Z,33.05
2023-04-06T12:35:23.397Z,33.18
2023-04-06T12:36:23.430Z,33.29
2023-04-06T12:37:23.416Z,33.36
2023-04-06T12:38:23.410Z,33.43
2023-04-06T12:39:23.441Z,33.55
2023-04-06T12:40:23.426Z,33.55
2023-04-06T12:41:23.438Z,33.56
2023-04-06T12:42:23.435Z,33.71
2023-04-06T12:43:23.431Z,33.78
2023-04-06T12:44:25.420Z,33.81
2023-04-06T12:45:23.450Z,33.93
2023-04-06T12:46:23.489Z,34.00
2023-04-06T12:47:23.468Z,34.15
2023-04-06T12:48:23.588Z,34.14
2023-04-06T12:49:23.575Z,34.22
2023-04-06T12:50:23.521Z,34.30
2023-04-06T12:51:23.481Z,34.34
2023-04-06T12:52:23.510Z,34.40
2023-04-06T12:53:23.516Z,34.39
2023-04-06T12:54:23.514Z,34.52
2023-04-06T12:55:23.523Z,34.61
2023-04-06T12:56:23.530Z,34.69
2023-04-06T12:57:23.528Z,34.64
2023-04-06T12:58:23.541Z,34.79
2023-04-06T12:59:23.622Z,34.79
2023-04-06T13:00:23.726Z,34.79
2023-04-06T13:01:23.734Z,34.69
2023-04-06T13:02:23.602Z,34.61
2023-04-06T13:03:23.603Z,34.55
2023-04-06T13:04:23.569Z,34.48
2023-04-06T13:05:23.580Z,34.34
2023-04-06T13:06:23.600Z,34.32
2023-04-06T13:07:23.625Z,34.26
2023-04-06T13:08:23.633Z,34.12
2023-04-06T13:09:23.627Z,34.06
2023-04-06T13:10:23.616Z,33.99
2023-04-06T13:11:23.838Z,33.93
2023-04-06T13:12:23.652Z,33.83
2023-04-06T13:13:23.640Z,33.83
2023-04-06T13:14:23.641Z,33.75
2023-04-06T13:15:23.707Z,33.74
2023-04-06T13:16:23.723Z,33.65
2023-04-06T13:17:23.794Z,33.68
2023-04-06T13:18:23.648Z,33.69
2023-04-06T13:19:23.679Z,33.73
2023-04-06T13:20:23.660Z,33.78
2023-04-06T13:21:23.693Z,33.81
2023-04-06T13:22:23.686Z,33.89
2023-04-06T13:23:23.677Z,33.84
2023-04-06T13:24:23.685Z,33.84
2023-04-06T13:25:23.702Z,33.87
2023-04-06T13:26:23.701Z,33.97
2023-04-06T13:27:23.736Z,33.97
2023-04-06T13:28:23.706Z,33.99
2023-04-06T13:29:23.737Z,33.97
2023-04-06T13:30:23.748Z,33.96
2023-04-06T13:31:23.735Z,33.96
2023-04-06T13:32:23.817Z,33.84
2023-04-06T13:33:23.764Z,33.87
2023-04-06T13:34:23.778Z,33.80
2023-04-06T13:35:23.764Z,33.73
2023-04-06T13:36:23.820Z,33.71
2023-04-06T13:37:23.770Z,33.66
2023-04-06T13:38:23.776Z,33.59
2023-04-06T13:39:23.801Z,33.59
2023-04-06T13:40:23.793Z,33.53
2023-04-06T13:41:23.820Z,33.62
2023-04-06T13:42:23.802Z,33.53
2023-04-06T13:43:23.817Z,33.52
2023-04-06T13:44:23.795Z,33.53
2023-04-06T13:45:23.797Z,33.53
2023-04-06T13:46:23.862Z,33.46
2023-04-06T13:47:23.812Z,33.50
2023-04-06T13:48:23.844Z,33.40
2023-04-06T13:49:23.836Z,33.44
2023-04-06T13:50:23.829Z,33.32
2023-04-06T13:51:23.850Z,33.32
2023-04-06T13:52:23.884Z,33.18
2023-04-06T13:53:23.847Z,33.08
2023-04-06T13:54:23.899Z,33.06
2023-04-06T13:55:23.847Z,33.05
2023-04-06T13:56:23.863Z,33.09
2023-04-06T13:57:23.903Z,33.06
2023-04-06T13:58:23.864Z,33.01
2023-04-06T13:59:24.034Z,33.06
2023-04-06T14:00:23.892Z,32.90
2023-04-06T14:01:23.899Z,32.98
2023-04-06T14:02:24.302Z,32.87
2023-04-06T14:03:24.039Z,32.83
2023-04-06T14:04:23.905Z,32.71
2023-04-06T14:05:23.904Z,32.54
2023-04-06T14:06:30.991Z,32.45
2023-04-06T14:07:24.767Z,32.32
2023-04-06T14:08:23.919Z,32.28
2023-04-06T14:09:23.919Z,32.30
2023-04-06T14:10:23.923Z,32.27
2023-04-06T14:11:23.950Z,32.25
2023-04-06T14:12:23.924Z,32.25
2023-04-06T14:13:24.058Z,32.09
2023-04-06T14:14:23.934Z,32.13
2023-04-06T14:15:23.942Z,31.98
2023-04-06T14:16:24.005Z,31.91
2023-04-06T14:17:23.989Z,31.81
2023-04-06T14:18:23.946Z,31.77
2023-04-06T14:19:23.983Z,31.67
2023-04-06T14:20:23.967Z,31.52
2023-04-06T14:21:23.962Z,31.43
2023-04-06T14:22:23.963Z,31.25
2023-04-06T14:23:23.970Z,31.26
2023-04-06T14:24:23.997Z,31.08
2023-04-06T14:25:23.974Z,30.93
2023-04-06T14:26:23.975Z,30.91
2023-04-06T14:27:24.008Z,30.75
2023-04-06T14:28:23.988Z,30.63
2023-04-06T14:29:24.042Z,30.57
2023-04-06T14:30:24.063Z,30.49
2023-04-06T14:31:24.048Z,30.28
2023-04-06T14:32:24.043Z,30.18
2023-04-06T14:33:24.008Z,30.22
2023-04-06T14:34:24.020Z,30.13
2023-04-06T14:35:24.022Z,29.95
2023-04-06T14:36:24.047Z,29.84
2023-04-06T14:37:24.033Z,29.75
2023-04-06T14:38:24.026Z,29.61
2023-04-06T14:39:24.021Z,29.55
2023-04-06T14:40:24.040Z,29.58
2023-04-06T14:41:24.024Z,29.50
2023-04-06T14:42:24.026Z,29.50
2023-04-06T14:43:24.036Z,29.42
2023-04-06T14:44:24.158Z,29.40
2023-04-06T14:45:24.046Z,29.36
2023-04-06T14:46:24.106Z,29.35
2023-04-06T14:47:24.065Z,29.36
2023-04-06T14:48:24.055Z,29.38
2023-04-06T14:49:24.058Z,29.40
2023-04-06T14:50:24.052Z,29.39
2023-04-06T14:51:24.057Z,29.26
2023-04-06T14:52:24.042Z,29.18
2023-04-06T14:53:24.049Z,29.11
2023-04-06T14:54:24.084Z,29.06
2023-04-06T14:55:24.063Z,28.92
2023-04-06T14:56:24.071Z,28.94
2023-04-06T14:57:24.055Z,28.67
2023-04-06T14:58:24.113Z,28.58
2023-04-06T14:59:24.085Z,28.54
2023-04-06T15:00:24.073Z,28.41
2023-04-06T15:01:24.148Z,28.35
2023-04-06T15:02:24.276Z,28.26
2023-04-06T15:03:24.242Z,28.17
2023-04-06T15:04:24.191Z,28.02
2023-04-06T15:05:24.069Z,27.99
2023-04-06T15:06:24.084Z,27.93
2023-04-06T15:07:24.082Z,27.79
2023-04-06T15:08:24.077Z,27.68
2023-04-06T15:09:24.084Z,27.64
2023-04-06T15:10:24.074Z,27.51
2023-04-06T15:11:24.095Z,27.51
2023-04-06T15:12:24.072Z,27.46
2023-04-06T15:13:24.075Z,27.33
2023-04-06T15:14:24.177Z,27.27
2023-04-06T15:15:24.080Z,27.15
2023-04-06T15:16:24.178Z,27.01
2023-04-06T15:17:24.204Z,27.00
2023-04-06T15:18:24.093Z,26.89
2023-04-06T15:19:24.094Z,26.84
2023-04-06T15:20:24.090Z,26.71
2023-04-06T15:21:24.591Z,26.57
2023-04-06T15:22:24.127Z,26.60
2023-04-06T15:23:24.107Z,26.49
2023-04-06T15:24:24.084Z,26.47
2023-04-06T15:25:24.083Z,26.45
2023-04-06T15:26:24.082Z,26.27
2023-04-06T15:27:24.077Z,26.26
2023-04-06T15:28:24.082Z,26.17
2023-04-06T15:29:24.082Z,26.09
2023-04-06T15:30:24.090Z,26.00
2023-04-06T15:31:36.095Z,25.96
2023-04-06T15:32:24.185Z,25.96
2023-04-06T15:33:24.141Z,25.88
2023-04-06T15:34:24.102Z,25.78
2023-04-06T15:35:24.077Z,25.71
2023-04-06T15:36:24.093Z,25.69
2023-04-06T15:37:24.137Z,25.62
2023-04-06T15:38:24.102Z,25.62
2023-04-06T15:39:24.105Z,25.56
2023-04-06T15:40:24.078Z,25.45
2023-04-06T15:41:24.093Z,25.38
2023-04-06T15:42:24.079Z,25.42
2023-04-06T15:43:24.088Z,25.33
2023-04-06T15:44:24.091Z,25.26
2023-04-06T15:45:24.085Z,25.23
2023-04-06T15:46:24.096Z,25.17
2023-04-06T15:47:24.146Z,25.09
2023-04-06T15:48:24.084Z,25.04
2023-04-06T15:49:24.147Z,25.04
2023-04-06T15:50:24.071Z,25.12
2023-04-06T15:51:24.100Z,25.07
2023-04-06T15:52:24.097Z,25.01
2023-04-06T15:53:24.084Z,25.00
2023-04-06T15:54:24.064Z,24.94
2023-04-06T15:55:24.083Z,24.82
2023-04-06T15:56:24.073Z,24.77
2023-04-06T15:57:24.063Z,24.80
2023-04-06T15:58:24.085Z,24.78
2023-04-06T15:59:24.079Z,24.77
2023-04-06T16:00:24.061Z,24.70
2023-04-06T16:12:30.915Z,24.24
2023-04-06T16:13:30.893Z,24.15
2023-04-06T16:14:30.867Z,24.24
2023-04-06T16:15:30.873Z,24.11
2023-04-06T16:16:30.924Z,24.12
2023-04-06T16:17:30.875Z,24.11
2023-04-06T16:18:30.854Z,24.03
2023-04-06T16:19:30.852Z,24.04
2023-04-06T16:20:30.825Z,23.93
2023-04-06T16:21:30.868Z,23.93
2023-04-06T16:22:30.818Z,23.89
2023-04-06T16:23:30.856Z,23.94
2023-04-06T16:24:30.825Z,23.82
2023-04-06T16:25:30.816Z,23.81
2023-04-06T16:26:30.828Z,23.89
2023-04-06T16:27:30.818Z,23.79
2023-04-06T16:28:30.835Z,23.78
2023-04-06T16:29:30.859Z,23.72
2023-04-06T16:30:30.823Z,23.72
2023-04-06T16:31:30.895Z,23.71
2023-04-06T16:32:30.799Z,23.60
2023-04-06T16:33:30.804Z,23.63
2023-04-06T16:34:30.826Z,23.62
2023-04-06T16:35:30.817Z,23.60
2023-04-06T16:36:30.814Z,23.53
2023-04-06T16:37:30.800Z,23.55
2023-04-06T16:38:30.789Z,23.44
2023-04-06T16:39:30.823Z,23.45
2023-04-06T16:40:30.807Z,23.44
2023-04-06T16:41:30.794Z,23.41
2023-04-06T16:42:30.785Z,23.45
2023-04-06T16:43:30.769Z,23.37
2023-04-06T16:44:30.840Z,23.41
2023-04-06T16:45:30.808Z,23.29
2023-04-06T16:46:30.801Z,23.25
2023-04-06T16:47:30.815Z,23.26
2023-04-06T16:48:30.772Z,23.22
2023-04-06T16:49:30.764Z,23.21
2023-04-06T16:50:30.783Z,23.18
2023-04-06T16:51:30.782Z,23.18
2023-04-06T16:52:30.764Z,23.07
2023-04-06T16:53:30.756Z,23.22
2023-04-06T16:54:30.798Z,23.09
2023-04-06T16:55:30.746Z,23.06
2023-04-06T16:56:30.812Z,23.04
2023-04-06T16:57:30.773Z,23.09
2023-04-06T16:58:30.745Z,23.06
2023-04-06T16:59:30.748Z,23.03
2023-04-06T17:00:30.772Z,23.03
2023-04-06T17:01:30.902Z,23.03
2023-04-06T17:02:30.878Z,22.92
2023-04-06T17:03:31.093Z,22.91
2023-04-06T17:04:30.731Z,22.92
2023-04-06T17:05:30.723Z,22.92
2023-04-06T17:06:30.721Z,22.84
2023-04-06T17:07:30.717Z,22.84
2023-04-06T17:08:30.723Z,22.85
2023-04-06T17:09:30.767Z,22.81
2023-04-06T17:10:33.863Z,22.78
2023-04-06T17:11:45.631Z,22.78
2023-04-06T17:12:30.724Z,22.71
2023-04-06T17:13:30.706Z,22.81
2023-04-06T17:14:30.704Z,22.71
2023-04-06T17:15:30.695Z,22.67
2023-04-06T17:16:30.728Z,22.61